Time;durP1;ratioP1;P1;durP2;ratioP2;P2;SDS_P1;SDS_P2;PMS_P1;PMS_P2;Temp;Humidity;BMP_temperature;BMP_pressure;BME280_temperature;BME280_humidity;BME280_pressure;Samples;Min_cycle;Max_cycle;Signal;HPM_P1;HPM_P2
2021/07/05 00:00:26;;;;;;;1.15;0.60;;;;;;;15.35;87.38;98431.47;4984182;28;20088;-67
2021/07/05 00:02:52;;;;;;;3.70;0.60;;;;;;;15.38;86.60;98436.47;4991274;28;20035;-67
2021/07/05 00:05:18;;;;;;;0.88;0.50;;;;;;;15.36;87.73;98435.88;4994715;28;20061;-67
2021/07/05 00:07:47;;;;;;;0.68;0.40;;;;;;;15.34;87.81;98438.00;4993516;28;20145;-67
2021/07/05 00:10:13;;;;;;;3.22;0.80;;;;;;;15.52;87.03;98431.53;4989497;28;20026;-67
2021/07/05 00:12:40;;;;;;;0.85;0.50;;;;;;;15.51;85.91;98433.44;4994446;28;20069;-67
2021/07/05 00:15:07;;;;;;;0.90;0.45;;;;;;;15.52;85.64;98423.34;4994399;28;20030;-67
2021/07/05 00:17:32;;;;;;;0.57;0.40;;;;;;;15.55;85.62;98431.88;4994381;28;20038;-67
2021/07/05 00:19:59;;;;;;;0.73;0.52;;;;;;;15.53;85.99;98430.44;4993351;28;20029;-67
2021/07/05 00:22:24;;;;;;;2.75;0.93;;;;;;;15.37;87.11;98420.34;4989940;28;20022;-67
2021/07/05 00:24:49;;;;;;;2.15;1.00;;;;;;;15.29;86.80;98399.75;4993041;28;20472;-67
2021/07/05 00:27:15;;;;;;;1.58;0.95;;;;;;;15.47;86.62;98415.09;4994655;28;20484;-67
2021/07/05 00:29:40;;;;;;;1.30;0.77;;;;;;;15.49;86.77;98421.94;4993343;28;20023;-67
2021/07/05 00:32:06;;;;;;;1.25;0.73;;;;;;;15.64;86.69;98424.13;4994328;28;20395;-67
2021/07/05 00:34:31;;;;;;;1.55;0.70;;;;;;;15.56;85.79;98421.78;4993087;28;20460;-67
2021/07/05 00:36:56;;;;;;;1.38;0.80;;;;;;;15.66;86.01;98421.16;4993494;28;20032;-67
2021/07/05 00:39:22;;;;;;;2.88;0.60;;;;;;;15.57;86.64;98413.38;4993834;28;20084;-67
2021/07/05 00:41:47;;;;;;;3.60;0.70;;;;;;;15.57;87.31;98412.53;4993785;28;20023;-67
2021/07/05 00:44:12;;;;;;;2.60;0.63;;;;;;;15.45;87.49;98420.78;4991528;28;20034;-67
2021/07/05 00:46:38;;;;;;;1.10;0.75;;;;;;;15.38;87.73;98420.13;4992989;28;20118;-67
2021/07/05 00:49:03;;;;;;;1.33;0.65;;;;;;;15.27;88.72;98420.97;4990944;28;20056;-67
2021/07/05 00:51:29;;;;;;;1.15;0.70;;;;;;;15.15;89.23;98414.75;4994128;28;20080;-67
2021/07/05 00:53:55;;;;;;;1.70;0.77;;;;;;;15.06;90.08;98423.31;4992839;28;20033;-67
2021/07/05 00:56:21;;;;;;;1.15;0.80;;;;;;;14.92;90.80;98419.19;4992304;28;20396;-67
2021/07/05 00:58:46;;;;;;;2.13;0.90;;;;;;;14.90;91.50;98426.78;4993010;28;20049;-67
2021/07/05 01:01:12;;;;;;;1.42;0.93;;;;;;;14.81;91.85;98428.22;4993544;28;20057;-67
2021/07/05 01:03:37;;;;;;;2.85;1.00;;;;;;;14.76;92.04;98425.41;4993610;28;20034;-67
2021/07/05 01:06:03;;;;;;;3.03;0.90;;;;;;;14.83;91.92;98423.38;4993078;28;20064;-67
2021/07/05 01:08:29;;;;;;;5.30;1.13;;;;;;;14.79;92.17;98422.19;4988730;28;20030;-67
2021/07/05 01:10:54;;;;;;;2.58;1.00;;;;;;;14.72;92.85;98416.03;4990625;28;20038;-67
2021/07/05 01:13:19;;;;;;;1.38;1.00;;;;;;;14.74;93.25;98419.34;4992552;28;20034;-67
2021/07/05 01:15:44;;;;;;;2.90;1.10;;;;;;;14.58;92.86;98394.50;4993689;28;20026;-67
2021/07/05 01:18:10;;;;;;;7.25;1.35;;;;;;;14.74;92.57;98411.19;4992854;28;20026;-67
2021/07/05 01:20:38;;;;;;;2.13;1.10;;;;;;;14.68;93.39;98408.34;4992485;28;20061;-67
2021/07/05 01:23:05;;;;;;;2.25;1.30;;;;;;;14.59;93.74;98411.69;4993216;28;20473;-67
2021/07/05 01:25:31;;;;;;;1.70;1.02;;;;;;;14.43;94.37;98400.41;4992124;28;20023;-67
2021/07/05 01:27:59;;;;;;;1.38;0.93;;;;;;;14.28;94.36;98382.91;4991136;28;20052;-67
2021/07/05 01:30:25;;;;;;;7.03;1.65;;;;;;;14.41;94.64;98399.03;4991162;28;20481;-67
2021/07/05 01:32:53;;;;;;;2.58;1.02;;;;;;;14.42;94.06;98387.06;4992997;28;20041;-67
2021/07/05 01:35:19;;;;;;;5.78;1.00;;;;;;;14.41;93.98;98385.41;4993456;28;20144;-67
2021/07/05 01:37:45;;;;;;;1.55;1.13;;;;;;;14.41;93.10;98388.13;4986181;28;20150;-67
2021/07/05 01:40:16;;;;;;;1.60;1.00;;;;;;;14.30;93.84;98387.06;4989735;28;20441;-67
2021/07/05 01:42:41;;;;;;;3.17;1.10;;;;;;;14.30;94.54;98387.06;4977968;28;20058;-67
2021/07/05 01:45:07;;;;;;;7.00;1.02;;;;;;;14.20;94.84;98384.94;4973870;28;20632;-67
2021/07/05 01:47:33;;;;;;;3.33;1.00;;;;;;;14.29;94.88;98376.44;4985540;28;20077;-67
2021/07/05 01:49:58;;;;;;;3.80;1.10;;;;;;;14.24;95.22;98372.50;4991931;28;20464;-67
2021/07/05 01:52:23;;;;;;;1.65;0.98;;;;;;;14.20;95.04;98371.34;4992341;28;20145;-67
2021/07/05 01:54:48;;;;;;;2.13;1.02;;;;;;;14.25;95.00;98374.19;4992310;28;20432;-67
2021/07/05 01:57:26;;;;;;;1.88;1.20;;;;;;;14.24;95.46;98369.78;4990922;28;20066;-67
2021/07/05 01:59:53;;;;;;;2.65;0.90;;;;;;;14.24;95.37;98375.22;4986917;28;20046;-67
2021/07/05 02:02:19;;;;;;;4.85;1.10;;;;;;;14.26;95.02;98372.28;4992202;28;20026;-67
2021/07/05 02:04:46;;;;;;;1.23;1.00;;;;;;;14.28;95.20;98377.47;4992978;28;20058;-67
2021/07/05 02:07:11;;;;;;;2.17;0.82;;;;;;;14.40;94.69;98376.41;4991623;28;20034;-67
2021/07/05 02:09:36;;;;;;;2.67;0.80;;;;;;;14.50;93.32;98380.44;4992575;28;20539;-67
2021/07/05 02:12:03;;;;;;;4.32;0.68;;;;;;;14.58;92.43;98361.84;4992317;28;20088;-67
2021/07/05 02:14:28;;;;;;;1.90;0.80;;;;;;;14.64;92.64;98370.94;4993047;28;20030;-67
2021/07/05 02:16:53;;;;;;;3.90;0.98;;;;;;;14.65;92.87;98353.56;4991471;28;20092;-67
2021/07/05 02:19:18;;;;;;;5.63;0.90;;;;;;;14.64;92.35;98344.53;4991088;28;20555;-67
2021/07/05 02:21:44;;;;;;;4.18;0.93;;;;;;;14.60;92.81;98343.38;4992312;28;20388;-67
2021/07/05 02:24:09;;;;;;;1.95;0.70;;;;;;;14.52;93.04;98346.47;4993163;28;20108;-67
2021/07/05 02:26:34;;;;;;;3.90;0.90;;;;;;;14.46;93.70;98358.28;4992551;28;20061;-67
2021/07/05 02:29:00;;;;;;;3.83;0.80;;;;;;;14.45;93.60;98372.97;4992702;28;20073;-67
2021/07/05 02:31:25;;;;;;;2.00;0.70;;;;;;;14.54;94.15;98376.16;4991846;28;20085;-67
2021/07/05 02:33:50;;;;;;;3.45;0.90;;;;;;;14.61;93.67;98366.00;4990876;28;20041;-67
2021/07/05 02:36:16;;;;;;;5.57;0.93;;;;;;;14.64;92.92;98357.34;4990972;28;20061;-67
2021/07/05 02:38:41;;;;;;;1.08;0.80;;;;;;;14.69;92.81;98341.09;4992000;28;20026;-67
2021/07/05 02:41:06;;;;;;;1.10;0.80;;;;;;;14.86;92.24;98354.81;4991721;28;20105;-67
2021/07/05 02:43:32;;;;;;;0.95;0.70;;;;;;;14.86;91.80;98368.41;4991808;28;20084;-66
2021/07/05 02:45:58;;;;;;;1.80;1.00;;;;;;;14.95;91.55;98371.56;4991567;28;20130;-67
2021/07/05 02:48:25;;;;;;;0.95;0.68;;;;;;;14.94;91.32;98359.84;4991481;28;20026;-66
2021/07/05 02:50:58;;;;;;;4.53;0.95;;;;;;;14.97;91.13;98364.00;4973273;28;20034;-66
2021/07/05 02:53:24;;;;;;;2.33;1.00;;;;;;;15.04;90.49;98365.50;4989784;28;20022;-67
2021/07/05 02:55:49;;;;;;;1.35;0.93;;;;;;;14.93;90.64;98350.00;4990493;28;20038;-66
2021/07/05 02:58:16;;;;;;;1.42;0.90;;;;;;;15.20;89.72;98363.09;4991353;28;20034;-66
2021/07/05 03:00:45;;;;;;;1.30;0.75;;;;;;;15.29;89.08;98347.97;4981341;28;20456;-67
2021/07/05 03:03:11;;;;;;;5.13;0.90;;;;;;;15.34;88.97;98357.06;4987161;28;20066;-66
2021/07/05 03:05:37;;;;;;;1.70;0.88;;;;;;;15.30;89.14;98364.09;4991668;28;20026;-66
2021/07/05 03:08:03;;;;;;;2.50;0.88;;;;;;;15.18;89.28;98325.16;4991096;28;20182;-66
2021/07/05 03:10:33;;;;;;;1.63;0.90;;;;;;;15.37;88.67;98358.47;4995161;28;20034;-66
2021/07/05 03:12:59;;;;;;;4.40;0.88;;;;;;;15.32;88.89;98358.38;4995132;28;20026;-66
2021/07/05 03:15:25;;;;;;;5.18;1.00;;;;;;;15.32;88.79;98364.66;4993368;28;20030;-67
2021/07/05 03:17:51;;;;;;;1.25;0.98;;;;;;;15.43;88.53;98362.09;4994424;28;20034;-67
2021/07/05 03:20:20;;;;;;;1.25;0.82;;;;;;;15.53;88.03;98357.66;4995116;28;20026;-67
2021/07/05 03:22:46;;;;;;;1.70;0.85;;;;;;;15.53;87.68;98368.56;4994735;28;20034;-67
2021/07/05 03:25:13;;;;;;;1.92;0.70;;;;;;;15.66;87.52;98367.41;4995987;28;20432;-67
2021/07/05 03:27:40;;;;;;;1.05;0.57;;;;;;;15.65;87.13;98371.22;4995477;28;20034;-67
2021/07/05 03:30:07;;;;;;;1.42;0.90;;;;;;;15.65;86.99;98362.22;4995009;28;20046;-67
2021/07/05 03:32:33;;;;;;;1.10;0.60;;;;;;;15.73;86.74;98357.22;4995137;28;20407;-67
2021/07/05 03:34:59;;;;;;;1.40;0.68;;;;;;;15.52;86.32;98331.47;4995002;28;20030;-67
2021/07/05 03:37:24;;;;;;;2.10;0.80;;;;;;;15.57;86.32;98344.38;4994104;28;20377;-68
2021/07/05 03:39:50;;;;;;;1.80;0.88;;;;;;;15.62;86.36;98357.28;4995203;28;20053;-67
2021/07/05 03:42:15;;;;;;;0.95;0.70;;;;;;;15.81;85.94;98369.63;4994980;28;20081;-68
2021/07/05 03:44:40;;;;;;;1.38;0.80;;;;;;;15.84;85.74;98373.75;4995389;28;20026;-68
2021/07/05 03:47:06;;;;;;;4.85;1.00;;;;;;;15.92;85.65;98374.16;4985382;28;20101;-67
2021/07/05 03:49:31;;;;;;;1.50;0.80;;;;;;;15.95;85.23;98356.47;4988696;28;20101;-67
2021/07/05 03:51:56;;;;;;;3.47;0.88;;;;;;;15.95;85.13;98353.72;4993315;28;20030;-67
2021/07/05 03:54:22;;;;;;;2.88;1.10;;;;;;;15.69;85.21;98322.50;4995033;28;20034;-68
2021/07/05 03:56:47;;;;;;;1.10;0.95;;;;;;;15.86;85.47;98342.41;4994113;28;20030;-68
2021/07/05 03:59:12;;;;;;;1.80;1.00;;;;;;;15.88;85.40;98336.72;4988653;28;20034;-69
2021/07/05 04:01:38;;;;;;;2.90;0.90;;;;;;;16.02;84.88;98339.94;4994772;28;20018;-65
2021/07/05 04:04:03;;;;;;;1.38;0.90;;;;;;;16.00;84.87;98337.44;4994083;28;20034;-66
2021/07/05 04:06:29;;;;;;;1.83;0.80;;;;;;;16.11;83.96;98342.00;4993789;28;20084;-64
2021/07/05 04:08:56;;;;;;;6.60;1.00;;;;;;;16.04;84.95;98348.69;4991605;28;20022;-65
2021/07/05 04:11:21;;;;;;;0.88;0.73;;;;;;;16.07;84.67;98348.19;4993863;28;20034;-63
2021/07/05 04:13:47;;;;;;;2.65;1.13;;;;;;;15.92;84.83;98340.59;4988917;28;20453;-71
2021/07/05 04:16:12;;;;;;;4.03;1.05;;;;;;;15.98;84.61;98350.50;4995285;28;20086;-70
2021/07/05 04:18:38;;;;;;;1.58;0.95;;;;;;;16.04;84.51;98354.16;4996947;28;20101;-68
2021/07/05 04:21:03;;;;;;;2.65;1.00;;;;;;;16.03;84.22;98347.03;4990589;28;20100;-68
2021/07/05 04:23:28;;;;;;;2.17;0.90;;;;;;;16.18;83.60;98358.19;4993219;28;20121;-67
2021/07/05 04:25:54;;;;;;;3.40;0.90;;;;;;;16.06;83.34;98350.09;4992898;28;20022;-68
2021/07/05 04:28:20;;;;;;;3.92;0.88;;;;;;;16.24;82.82;98372.72;4992095;28;20041;-70
2021/07/05 04:30:45;;;;;;;2.80;0.70;;;;;;;16.23;83.29;98366.44;4990991;28;20030;-68
2021/07/05 04:33:11;;;;;;;1.45;1.02;;;;;;;16.14;83.16;98349.69;4993267;28;20035;-70
2021/07/05 04:35:36;;;;;;;4.50;0.68;;;;;;;16.08;82.67;98344.38;4994065;28;20022;-72
2021/07/05 04:38:03;;;;;;;2.13;0.80;;;;;;;16.20;83.45;98375.13;4992079;28;20038;-70
2021/07/05 04:40:31;;;;;;;1.73;0.90;;;;;;;16.31;82.83;98365.19;4986101;28;20034;-73
2021/07/05 04:42:56;;;;;;;1.55;0.75;;;;;;;16.30;82.45;98356.19;5000451;28;20025;-70
2021/07/05 04:45:26;;;;;;;1.58;1.02;;;;;;;16.30;81.97;98349.91;4996489;28;20396;-72
2021/07/05 04:47:52;;;;;;;2.85;0.80;;;;;;;16.39;82.10;98360.13;4992926;28;20022;-72
2021/07/05 04:50:18;;;;;;;2.08;0.70;;;;;;;16.60;81.48;98372.13;4991011;28;20030;-72
2021/07/05 04:52:44;;;;;;;1.85;0.90;;;;;;;16.76;81.43;98370.44;4993158;28;20022;-71
2021/07/05 04:55:11;;;;;;;3.22;0.88;;;;;;;16.97;80.87;98365.25;4987474;28;20040;-71
2021/07/05 04:57:38;;;;;;;1.55;0.80;;;;;;;16.95;80.32;98368.25;4992521;28;20105;-73
2021/07/05 05:00:07;;;;;;;1.17;0.70;;;;;;;17.00;79.95;98365.59;4993127;28;20061;-67
2021/07/05 05:02:32;;;;;;;1.23;0.98;;;;;;;16.94;79.88;98349.38;4993015;28;20484;-73
2021/07/05 05:04:58;;;;;;;2.28;1.20;;;;;;;17.03;79.16;98356.03;5000676;28;20042;-70
2021/07/05 05:07:23;;;;;;;1.50;0.77;;;;;;;17.15;79.11;98345.78;4995117;28;20057;-75
2021/07/05 05:09:48;;;;;;;4.97;1.05;;;;;;;17.36;78.17;98346.81;4994061;28;20022;-73
2021/07/05 05:12:14;;;;;;;1.08;0.65;;;;;;;17.35;77.83;98336.13;4993198;28;20312;-76
2021/07/05 05:14:39;;;;;;;1.30;0.90;;;;;;;17.41;77.84;98327.72;4994251;28;20085;-74
2021/07/05 05:17:06;;;;;;;0.90;0.65;;;;;;;17.43;78.00;98346.59;4994094;28;20817;-71
2021/07/05 05:19:32;;;;;;;2.67;0.88;;;;;;;17.50;77.74;98349.94;4991555;28;20526;-75
2021/07/05 05:21:57;;;;;;;4.00;0.95;;;;;;;17.35;77.72;98347.06;4993574;28;20022;-70
2021/07/05 05:24:22;;;;;;;1.08;0.70;;;;;;;17.43;77.44;98354.81;4991154;28;20046;-74
2021/07/05 05:26:48;;;;;;;1.70;0.63;;;;;;;17.46;77.89;98368.78;4991690;28;20022;-67
2021/07/05 05:29:13;;;;;;;1.67;0.80;;;;;;;17.52;77.83;98377.84;4992835;28;20030;-66
2021/07/05 05:31:39;;;;;;;3.03;1.05;;;;;;;17.62;77.42;98380.69;4990750;28;20517;-66
2021/07/05 05:34:04;;;;;;;2.58;0.88;;;;;;;17.72;77.17;98379.97;4992146;28;20035;-67
2021/07/05 05:36:30;;;;;;;1.92;0.90;;;;;;;17.98;77.04;98372.81;4992567;28;20035;-72
2021/07/05 05:38:57;;;;;;;1.40;0.80;;;;;;;18.14;75.73;98376.50;4991415;28;20050;-67
2021/07/05 05:41:22;;;;;;;4.78;1.00;;;;;;;18.20;75.12;98371.88;4992290;28;20089;-70
2021/07/05 05:43:47;;;;;;;2.45;0.82;;;;;;;18.26;75.35;98365.34;4991511;28;20113;-77
2021/07/05 05:46:16;;;;;;;1.85;0.88;;;;;;;18.39;74.71;98381.31;4990827;28;20030;-76
2021/07/05 05:48:43;;;;;;;1.67;0.75;;;;;;;18.27;74.62;98387.00;4992473;28;20512;-69
2021/07/05 05:51:10;;;;;;;1.77;0.93;;;;;;;18.32;74.76;98389.75;4992699;28;22312;-66
2021/07/05 05:53:35;;;;;;;1.38;0.85;;;;;;;18.39;74.07;98386.78;4989242;28;20026;-71
2021/07/05 05:56:01;;;;;;;1.45;0.90;;;;;;;18.32;73.84;98376.06;4990394;28;20037;-70
2021/07/05 05:58:26;;;;;;;1.55;0.80;;;;;;;18.13;74.63;98383.88;4990306;28;20033;-69
2021/07/05 06:00:52;;;;;;;4.90;0.90;;;;;;;17.96;75.12;98366.78;4991639;28;20022;-70
2021/07/05 06:03:17;;;;;;;1.92;0.80;;;;;;;18.18;74.71;98383.94;4990414;28;20030;-72
2021/07/05 06:05:42;;;;;;;4.97;1.10;;;;;;;18.16;74.49;98385.28;4992703;28;20022;-72
2021/07/05 06:08:08;;;;;;;5.10;1.15;;;;;;;18.12;74.34;98371.28;4990454;28;20079;-72
2021/07/05 06:10:33;;;;;;;1.00;0.90;;;;;;;18.04;74.80;98385.44;4989254;28;20449;-72
2021/07/05 06:12:59;;;;;;;2.38;0.82;;;;;;;17.91;75.56;98370.28;4992346;28;20041;-72
2021/07/05 06:15:25;;;;;;;2.85;1.10;;;;;;;18.09;75.58;98388.22;4991214;28;20030;-73
2021/07/05 06:17:51;;;;;;;1.90;0.90;;;;;;;17.99;75.89;98381.84;4990064;28;20036;-73
2021/07/05 06:20:18;;;;;;;6.68;1.10;;;;;;;17.98;75.89;98377.47;4991755;28;20543;-74
2021/07/05 06:22:49;;;;;;;1.33;0.90;;;;;;;17.97;76.63;98382.09;4990270;28;20464;-73
2021/07/05 06:25:15;;;;;;;2.05;1.10;;;;;;;17.79;77.14;98363.31;4990989;28;20054;-68
2021/07/05 06:27:41;;;;;;;2.80;0.90;;;;;;;17.74;77.59;98373.16;4990229;28;20084;-73
2021/07/05 06:30:07;;;;;;;2.03;1.08;;;;;;;17.80;77.23;98370.50;4990446;28;20041;-67
2021/07/05 06:32:32;;;;;;;2.72;0.90;;;;;;;17.94;77.69;98379.91;4990636;28;20022;-69
2021/07/05 06:34:57;;;;;;;2.38;1.13;;;;;;;17.87;77.18;98360.97;4993577;28;20488;-77
2021/07/05 06:37:23;;;;;;;4.85;1.23;;;;;;;17.95;77.22;98356.94;4993471;28;20037;-77
2021/07/05 06:39:48;;;;;;;2.80;1.10;;;;;;;17.82;77.75;98343.69;4989854;28;20136;-72
2021/07/05 06:42:13;;;;;;;1.85;1.00;;;;;;;17.97;77.08;98338.31;4991173;28;20034;-72
2021/07/05 06:44:39;;;;;;;2.63;0.90;;;;;;;18.05;77.04;98347.94;4993007;28;20113;-71
2021/07/05 06:47:04;;;;;;;1.77;0.90;;;;;;;18.23;76.40;98360.38;4995936;28;20487;-72
2021/07/05 06:49:29;;;;;;;5.82;1.20;;;;;;;18.39;77.18;98364.88;4994363;28;20034;-74
2021/07/05 06:51:55;;;;;;;7.20;0.98;;;;;;;18.39;77.02;98348.44;5001399;28;20122;-70
2021/07/05 06:54:20;;;;;;;4.30;1.27;;;;;;;18.64;76.86;98369.66;4995976;28;20025;-68
2021/07/05 06:56:46;;;;;;;5.35;1.20;;;;;;;18.64;76.47;98369.66;4995046;28;20026;-68
2021/07/05 06:59:11;;;;;;;2.80;1.30;;;;;;;18.68;76.24;98343.41;4995731;28;20472;-69
2021/07/05 07:01:36;;;;;;;7.22;1.05;;;;;;;18.72;74.65;98360.13;4994335;28;20153;-69
2021/07/05 07:04:02;;;;;;;3.20;0.82;;;;;;;18.84;76.40;98371.72;4993171;28;20048;-69
2021/07/05 07:06:28;;;;;;;2.50;0.88;;;;;;;19.08;75.07;98387.72;4989578;28;20081;-67
2021/07/05 07:08:53;;;;;;;2.80;1.00;;;;;;;19.03;75.22;98388.50;4985191;28;20157;-67
2021/07/05 07:11:20;;;;;;;2.28;0.88;;;;;;;19.22;75.40;98381.44;4987021;28;20049;-67
2021/07/05 07:13:45;;;;;;;8.15;0.93;;;;;;;19.34;74.91;98374.91;4988497;28;20501;-68
2021/07/05 07:16:13;;;;;;;1.25;0.82;;;;;;;19.52;73.48;98392.75;4981841;28;20135;-68
2021/07/05 07:21:23;;;;;;;1.73;1.00;;;;;;;19.32;74.30;98380.66;4991082;28;20456;-65
2021/07/05 07:23:49;;;;;;;1.95;0.90;;;;;;;19.12;73.49;98372.34;4993374;28;20026;-65
2021/07/05 07:26:14;;;;;;;5.13;1.00;;;;;;;19.20;75.01;98380.06;4994227;28;20100;-60
2021/07/05 07:28:40;;;;;;;2.72;1.10;;;;;;;18.99;75.71;98380.00;4994393;28;20030;-60
2021/07/05 07:31:05;;;;;;;1.77;1.05;;;;;;;18.94;76.25;98380.00;4994875;28;20034;-66
2021/07/05 07:33:31;;;;;;;5.25;0.98;;;;;;;18.90;75.54;98359.69;4991603;28;20037;-67
2021/07/05 07:35:58;;;;;;;1.83;1.00;;;;;;;19.15;75.25;98378.16;4992976;28;20380;-63
2021/07/05 07:38:25;;;;;;;4.85;1.15;;;;;;;19.09;74.73;98345.47;4991825;28;20109;-67
2021/07/05 07:40:50;;;;;;;4.57;1.10;;;;;;;19.49;73.95;98383.13;4994322;28;20140;-69
2021/07/05 07:43:15;;;;;;;3.60;0.80;;;;;;;19.66;73.13;98378.25;4992495;28;20526;-68
2021/07/05 07:45:41;;;;;;;7.15;1.58;;;;;;;20.05;73.46;98379.66;4994950;28;20031;-71
2021/07/05 07:48:06;;;;;;;2.65;0.82;;;;;;;20.06;71.92;98357.38;4994771;28;20022;-71
2021/07/05 07:50:32;;;;;;;2.92;0.85;;;;;;;20.37;69.86;98343.59;4994237;28;20411;-72
2021/07/05 07:52:59;;;;;;;1.98;0.82;;;;;;;20.69;69.29;98358.94;4994861;28;20053;-75
2021/07/05 07:55:24;;;;;;;2.88;0.80;;;;;;;20.70;68.53;98366.91;4994450;28;20022;-72
2021/07/05 07:57:49;;;;;;;3.38;0.88;;;;;;;20.68;68.06;98360.88;4994618;28;20113;-74
2021/07/05 08:00:15;;;;;;;4.93;1.05;;;;;;;20.95;67.16;98365.97;4995247;28;20717;-73
2021/07/05 08:02:42;;;;;;;1.42;0.63;;;;;;;20.92;67.48;98371.22;4995681;28;20500;-74
2021/07/05 08:05:08;;;;;;;2.67;0.82;;;;;;;21.27;67.82;98367.47;4994868;28;20042;-72
2021/07/05 08:07:36;;;;;;;1.13;0.75;;;;;;;21.27;65.78;98348.19;4994906;28;20026;-74
2021/07/05 08:10:02;;;;;;;1.63;0.52;;;;;;;20.91;67.53;98342.09;4994886;28;20037;-73
2021/07/05 08:12:27;;;;;;;1.25;0.70;;;;;;;21.06;68.13;98347.50;4995395;28;20540;-73
2021/07/05 08:14:53;;;;;;;1.67;0.77;;;;;;;21.58;66.65;98346.09;4994042;28;20023;-74
2021/07/05 08:17:18;;;;;;;1.63;0.60;;;;;;;21.81;65.58;98368.50;4996333;28;20531;-73
2021/07/05 08:19:44;;;;;;;4.57;0.73;;;;;;;22.00;64.82;98363.94;4994448;28;20105;-66
2021/07/05 08:22:10;;;;;;;0.68;0.50;;;;;;;22.26;62.76;98369.25;4994242;28;20022;-68
2021/07/05 08:24:35;;;;;;;2.65;0.73;;;;;;;21.59;65.97;98345.00;4992689;28;20042;-71
2021/07/05 08:27:00;;;;;;;5.57;0.77;;;;;;;21.81;66.65;98357.50;5002365;28;20053;-66
2021/07/05 08:29:26;;;;;;;6.40;1.80;;;;;;;21.49;67.35;98378.09;4998833;28;20026;-66
2021/07/05 08:31:52;;;;;;;1.85;0.70;;;;;;;21.40;66.94;98372.38;5001813;28;20026;-65
2021/07/05 08:34:17;;;;;;;3.45;0.70;;;;;;;21.36;66.25;98342.94;5005045;28;20096;-66
2021/07/05 08:36:42;;;;;;;1.33;0.60;;;;;;;21.36;67.17;98367.69;4998625;28;20112;-66
2021/07/05 08:39:09;;;;;;;1.67;0.85;;;;;;;21.41;64.17;98367.72;4993952;28;20023;-65
2021/07/05 08:41:35;;;;;;;2.72;1.13;;;;;;;21.21;65.25;98365.84;4992151;28;20156;-69
2021/07/05 08:44:02;;;;;;;6.40;1.00;;;;;;;20.80;67.37;98371.53;4994576;28;20105;-64
2021/07/05 08:46:31;;;;;;;0.93;0.60;;;;;;;21.02;66.11;98365.69;4990563;28;20161;-68
2021/07/05 08:48:56;;;;;;;;;;;;;;;21.07;66.25;98362.91;4991633;28;20500;-67
2021/07/05 08:51:22;;;;;;;1.67;0.50;;;;;;;21.23;62.78;98356.22;4999303;28;19917;-67
2021/07/05 08:53:48;;;;;;;1.45;0.57;;;;;;;21.40;63.44;98366.03;4996737;28;20273;-67
2021/07/05 08:56:14;;;;;;;1.60;0.65;;;;;;;21.37;64.51;98361.09;4997037;28;20420;-66
2021/07/05 08:58:40;;;;;;;0.50;0.40;;;;;;;21.57;63.18;98355.47;4986875;28;20027;-65
2021/07/05 09:01:07;;;;;;;1.73;0.63;;;;;;;21.79;62.16;98352.28;4985728;28;20453;-64
2021/07/05 09:03:34;;;;;;;2.15;0.43;;;;;;;21.19;63.85;98348.81;4988086;28;20031;-67
2021/07/05 09:06:06;;;;;;;1.15;0.63;;;;;;;21.67;64.65;98360.91;4986471;28;20080;-67
2021/07/05 09:08:35;;;;;;;1.67;0.65;;;;;;;21.58;64.85;98348.84;4986747;28;20431;-67
2021/07/05 09:11:01;;;;;;;5.93;1.02;;;;;;;21.41;65.45;98357.50;4990438;28;20435;-67
2021/07/05 09:13:27;;;;;;;2.47;0.73;;;;;;;21.10;68.28;98354.09;4989269;28;20038;-66
2021/07/05 09:15:58;;;;;;;1.92;0.60;;;;;;;20.95;67.69;98365.16;4986764;28;20049;-68
2021/07/05 09:18:27;;;;;;;0.70;0.50;;;;;;;20.76;67.65;98363.03;4981972;28;20030;-66
2021/07/05 09:20:54;;;;;;;2.80;0.60;;;;;;;20.48;68.85;98356.22;4986333;28;20022;-67
2021/07/05 09:23:20;;;;;;;1.20;0.65;;;;;;;20.59;68.61;98351.53;4985509;28;20376;-67
2021/07/05 09:25:49;;;;;;;2.08;0.70;;;;;;;20.25;69.01;98363.16;4990234;28;20136;-70
2021/07/05 09:28:16;;;;;;;0.98;0.80;;;;;;;20.14;69.59;98375.22;4995080;28;20033;-69
2021/07/05 09:30:45;;;;;;;1.10;0.80;;;;;;;20.20;70.81;98376.91;4996380;28;20873;-68
2021/07/05 09:33:23;;;;;;;3.63;1.00;;;;;;;20.03;71.24;98374.41;4997673;28;20395;-68
2021/07/05 09:36:03;;;;;;;1.73;0.88;;;;;;;20.04;72.46;98380.72;4987846;28;20109;-68
2021/07/05 09:38:41;;;;;;;1.77;0.82;;;;;;;20.36;70.46;98380.44;4980342;28;20045;-69
2021/07/05 09:41:19;;;;;;;3.40;0.70;;;;;;;20.06;71.45;98381.28;4986132;28;20038;-67
2021/07/05 09:43:45;;;;;;;1.65;0.60;;;;;;;19.91;70.89;98369.22;4987829;28;20065;-67
2021/07/05 09:46:12;;;;;;;1.20;0.73;;;;;;;19.91;71.05;98354.66;4988139;28;20383;-67
2021/07/05 09:48:47;;;;;;;1.10;0.30;;;;;;;19.69;64.83;98365.91;4984511;28;20030;-67
2021/07/05 09:51:18;;;;;;;3.67;1.30;;;;;;;19.56;67.75;98369.97;4980333;28;20030;-67
2021/07/05 09:53:44;;;;;;;0.73;0.50;;;;;;;19.30;69.65;98360.06;4990446;28;20037;-69
2021/07/05 09:56:20;;;;;;;1.25;0.70;;;;;;;19.41;73.04;98391.91;4992303;28;20038;-74
2021/07/05 09:58:47;;;;;;;2.15;0.77;;;;;;;19.22;71.48;98394.31;5001909;28;20021;-71
2021/07/05 10:01:33;;;;;;;0.95;0.50;;;;;;;18.93;74.50;98392.03;4994237;28;20026;-67
2021/07/05 10:04:03;;;;;;;2.22;0.60;;;;;;;19.05;74.04;98389.06;4999273;28;20034;-64
2021/07/05 10:06:28;;;;;;;0.90;0.45;;;;;;;18.72;73.89;98357.38;5000924;28;20494;-68
2021/07/05 10:08:55;;;;;;;2.35;0.57;;;;;;;18.71;75.65;98385.88;4995908;28;20069;-74
2021/07/05 10:11:22;;;;;;;0.90;0.30;;;;;;;18.48;75.11;98393.41;4996581;28;20105;-67
2021/07/05 10:13:47;;;;;;;0.77;0.60;;;;;;;18.76;76.14;98392.25;4998030;28;20033;-70
2021/07/05 10:16:13;;;;;;;1.13;0.40;;;;;;;18.58;76.10;98379.78;4985403;28;20030;-68
2021/07/05 10:18:40;;;;;;;3.80;0.50;;;;;;;18.73;76.50;98397.38;4991617;28;20022;-68
2021/07/05 10:21:06;;;;;;;1.80;0.40;;;;;;;18.19;78.11;98371.06;5000753;28;20037;-66
2021/07/05 10:23:31;;;;;;;2.95;0.47;;;;;;;18.55;76.42;98391.28;4997247;28;20045;-66
2021/07/05 10:25:57;;;;;;;2.35;0.50;;;;;;;18.35;76.85;98380.19;4998603;28;20652;-66
2021/07/05 10:28:22;;;;;;;2.42;0.45;;;;;;;18.29;76.29;98384.00;4998393;28;20484;-66
2021/07/05 10:30:53;;;;;;;1.70;0.50;;;;;;;18.07;78.44;98368.50;4994943;28;20077;-66
2021/07/05 10:33:20;;;;;;;1.20;0.55;;;;;;;18.08;77.85;98367.44;4998176;28;20487;-66
2021/07/05 10:35:53;;;;;;;0.82;0.60;;;;;;;18.28;77.51;98366.72;4989643;28;20057;-66
2021/07/05 10:38:22;;;;;;;1.98;0.40;;;;;;;18.65;78.13;98362.28;4983438;28;20038;-68
2021/07/05 10:40:52;;;;;;;1.20;0.52;;;;;;;18.96;76.68;98358.59;4989087;28;20038;-68
2021/07/05 10:43:24;;;;;;;1.48;0.57;;;;;;;19.32;75.68;98344.97;4990485;28;20034;-72
2021/07/05 10:45:50;;;;;;;1.77;0.40;;;;;;;19.59;74.87;98349.41;4988785;28;20026;-67
2021/07/05 10:48:35;;;;;;;0.75;0.40;;;;;;;19.69;74.68;98343.97;4990988;28;20028;-68
2021/07/05 10:51:01;;;;;;;0.90;0.52;;;;;;;19.97;75.36;98355.50;4989093;28;20387;-68
2021/07/05 10:53:33;;;;;;;1.60;0.65;;;;;;;19.97;75.77;98350.00;4990224;28;20081;-72
2021/07/05 10:56:22;;;;;;;1.98;0.70;;;;;;;20.14;73.42;98350.50;4991394;28;20041;-73
2021/07/05 10:58:47;;;;;;;;;;;;;;;20.03;72.65;98346.16;4984370;28;20048;-68
2021/07/05 11:01:16;;;;;;;1.00;0.35;;;;;;;20.12;74.08;98333.47;4990602;28;19913;-67
2021/07/05 11:03:41;;;;;;;1.17;0.70;;;;;;;19.92;75.94;98345.34;4989679;28;20027;-65
2021/07/05 11:06:11;;;;;;;0.88;0.60;;;;;;;19.57;76.65;98346.09;4988413;28;20121;-67
2021/07/05 11:08:53;;;;;;;2.17;0.88;;;;;;;19.75;76.66;98329.13;4988887;28;20057;-66
2021/07/05 11:11:24;;;;;;;1.50;0.57;;;;;;;19.64;77.47;98341.19;4990828;28;20023;-70
2021/07/05 11:14:11;;;;;;;0.63;0.47;;;;;;;19.22;76.67;98332.06;4990515;28;20018;-70
2021/07/05 11:17:04;;;;;;;3.00;0.52;;;;;;;19.26;76.86;98337.84;4991304;28;20530;-70
2021/07/05 11:19:41;;;;;;;5.45;0.70;;;;;;;19.63;74.46;98343.09;4988256;28;20046;-70
2021/07/05 11:22:17;;;;;;;1.20;0.55;;;;;;;19.72;73.68;98328.88;4990091;28;20030;-67
2021/07/05 11:25:07;;;;;;;3.95;0.70;;;;;;;19.96;72.61;98312.63;4991641;28;20022;-71
2021/07/05 11:27:52;;;;;;;2.25;0.50;;;;;;;20.31;72.14;98336.50;4991059;28;20045;-67
2021/07/05 11:30:30;;;;;;;0.50;0.40;;;;;;;21.09;69.79;98335.09;4990880;28;20591;-68
2021/07/05 11:33:07;;;;;;;2.20;0.40;;;;;;;21.15;69.05;98326.53;4995114;28;20034;-66
2021/07/05 11:35:40;;;;;;;0.80;0.50;;;;;;;21.47;69.27;98332.72;4994412;28;20041;-68